Time;durP1;ratioP1;P1;durP2;ratioP2;P2;SDS_P1;SDS_P2;PMS_P1;PMS_P2;Temp;Humidity;BMP_temperature;BMP_pressure;BME280_temperature;BME280_humidity;BME280_pressure;Samples;Min_cycle;Max_cycle;Signal;HPM_P1;HPM_P2
2022/10/29 00:01:08;;;;;;;11.98;6.07;;;;;;;14.41;82.40;99400.66;5034192;28;20509;-81
2022/10/29 00:03:35;;;;;;;14.02;6.38;;;;;;;14.42;82.36;99399.56;5032218;28;20025;-81
2022/10/29 00:06:03;;;;;;;10.27;6.55;;;;;;;14.36;82.51;99399.81;5027061;28;20116;-81
2022/10/29 00:08:30;;;;;;;13.05;6.72;;;;;;;14.33;82.90;99401.13;5033791;28;20025;-81
2022/10/29 00:11:03;;;;;;;14.73;7.22;;;;;;;14.49;82.48;99402.84;5016370;28;20029;-81
2022/10/29 00:13:28;;;;;;;11.52;6.60;;;;;;;14.37;82.37;99394.19;5029088;28;20094;-80
2022/10/29 00:15:53;;;;;;;18.67;7.78;;;;;;;14.38;82.10;99398.47;4981463;28;20033;-81
2022/10/29 00:18:19;;;;;;;17.00;7.82;;;;;;;14.43;82.53;99405.75;5029431;28;20030;-81
2022/10/29 00:20:44;;;;;;;12.32;7.28;;;;;;;14.53;82.45;99397.75;5013057;28;20482;-81
2022/10/29 00:23:09;;;;;;;11.52;6.80;;;;;;;14.34;82.67;99392.00;5016434;28;20545;-81
2022/10/29 00:25:35;;;;;;;20.42;7.38;;;;;;;14.29;83.06;99400.03;5027329;28;20038;-81
2022/10/29 00:28:00;;;;;;;12.63;7.25;;;;;;;14.36;81.87;99381.81;5009574;28;20390;-81
2022/10/29 00:30:26;;;;;;;10.40;5.88;;;;;;;14.13;83.80;99393.72;5029846;28;20029;-81
2022/10/29 00:32:51;;;;;;;13.18;7.07;;;;;;;13.96;84.44;99393.06;5027879;28;20485;-81
2022/10/29 00:35:17;;;;;;;14.40;7.45;;;;;;;13.12;88.63;99375.91;5012134;28;20072;-81
2022/10/29 00:37:42;;;;;;;19.48;8.73;;;;;;;13.34;88.07;99402.69;5015681;28;20607;-81
2022/10/29 00:40:08;;;;;;;19.02;8.25;;;;;;;12.90;89.53;99388.50;5012767;28;20183;-81
2022/10/29 00:42:33;;;;;;;17.65;8.13;;;;;;;13.54;87.64;99395.63;5028272;28;20041;-81
2022/10/29 00:44:59;;;;;;;12.80;7.03;;;;;;;14.09;84.18;99403.34;5008778;28;20397;-81
2022/10/29 00:47:36;;;;;;;15.68;6.88;;;;;;;13.93;84.23;99388.22;5030902;28;20570;-81
2022/10/29 00:50:05;;;;;;;15.70;8.52;;;;;;;14.06;83.03;99386.97;5027578;28;20485;-81
2022/10/29 00:52:34;;;;;;;12.70;6.65;;;;;;;14.19;82.82;99389.19;5014511;28;20049;-81
2022/10/29 00:55:04;;;;;;;19.58;7.93;;;;;;;13.58;85.45;99413.91;4996900;28;20037;-81
2022/10/29 00:57:35;;;;;;;18.33;8.25;;;;;;;13.79;84.52;99405.78;5013438;28;20052;-81
2022/10/29 01:00:01;;;;;;;13.38;7.05;;;;;;;13.81;85.21;99416.25;5010873;28;20038;-81
2022/10/29 01:02:30;;;;;;;12.60;6.82;;;;;;;13.87;84.48;99416.06;5030170;28;20401;-81
2022/10/29 01:04:56;;;;;;;14.65;7.95;;;;;;;13.73;85.64;99416.75;5006927;28;20040;-81
2022/10/29 01:07:21;;;;;;;16.20;7.57;;;;;;;13.68;85.35;99424.72;5028562;28;20623;-81
2022/10/29 01:09:48;;;;;;;19.08;7.35;;;;;;;13.74;85.14;99421.84;5012761;28;20048;-81
2022/10/29 01:12:34;;;;;;;15.25;8.40;;;;;;;13.22;87.93;99429.63;4995582;28;20099;-81
2022/10/29 01:15:30;;;;;;;13.73;8.18;;;;;;;13.17;87.95;99415.38;5013117;28;20053;-81
2022/10/29 01:18:10;;;;;;;9.82;6.55;;;;;;;13.23;87.85;99407.13;5027327;28;20040;-81
2022/10/29 01:21:17;;;;;;;15.25;8.00;;;;;;;13.37;86.59;99424.44;5006420;28;20033;-81
2022/10/29 01:24:13;;;;;;;16.60;7.85;;;;;;;13.70;84.93;99417.22;5005809;28;20038;-81
2022/10/29 01:26:53;;;;;;;11.13;6.80;;;;;;;13.72;85.22;99413.25;5006070;28;20076;-81
2022/10/29 01:29:49;;;;;;;13.65;7.28;;;;;;;13.63;84.63;99409.41;5027600;28;20026;-81
2022/10/29 01:32:23;;;;;;;17.23;8.15;;;;;;;13.33;86.85;99393.81;5011189;28;20037;-81
2022/10/29 01:35:01;;;;;;;13.27;6.57;;;;;;;14.06;83.65;99411.13;5029541;28;20040;-82
2022/10/29 01:37:53;;;;;;;11.70;7.68;;;;;;;13.74;84.58;99405.75;5024261;28;20184;-81
2022/10/29 01:40:32;;;;;;;19.55;8.48;;;;;;;14.02;83.58;99418.84;5028077;28;20532;-81
2022/10/29 01:43:12;;;;;;;12.45;6.40;;;;;;;13.76;84.91;99413.56;5027064;28;20072;-82
2022/10/29 01:45:50;;;;;;;11.80;6.85;;;;;;;13.59;85.64;99418.19;5010744;28;20434;-81
2022/10/29 01:48:21;;;;;;;20.48;8.80;;;;;;;12.92;89.52;99389.06;5028235;28;20103;-81
2022/10/29 01:50:53;;;;;;;17.70;9.82;;;;;;;12.87;90.27;99401.56;5026996;28;20029;-84
2022/10/29 01:53:22;;;;;;;;;;;;;;;13.57;85.97;99404.22;5027454;28;20103;-81
2022/10/29 01:55:48;;;;;;;28.17;10.10;;;;;;;13.42;86.83;99413.78;5028045;28;19917;-81
2022/10/29 01:58:14;;;;;;;13.80;6.82;;;;;;;13.77;84.69;99415.97;5010697;28;20473;-81
2022/10/29 02:00:53;;;;;;;15.10;6.80;;;;;;;13.85;83.95;99415.50;5029281;28;20072;-81
2022/10/29 02:03:56;;;;;;;10.07;6.45;;;;;;;13.87;84.49;99401.84;5029116;28;20121;-81
2022/10/29 02:06:32;;;;;;;13.23;7.22;;;;;;;13.97;83.53;99407.28;5025896;28;20029;-81
2022/10/29 02:09:06;;;;;;;15.30;7.25;;;;;;;13.72;85.77;99409.75;5008123;28;20032;-81
2022/10/29 02:11:50;;;;;;;23.63;9.20;;;;;;;13.33;87.50;99412.59;5027584;28;20108;-82
2022/10/29 02:14:30;;;;;;;15.48;7.63;;;;;;;13.43;87.08;99401.97;5028653;28;20022;-81
2022/10/29 02:16:57;;;;;;;20.48;8.45;;;;;;;13.24;87.76;99400.69;5026515;28;20044;-81
2022/10/29 02:19:28;;;;;;;18.00;7.38;;;;;;;13.26;87.43;99395.91;5028371;28;20446;-81
2022/10/29 02:21:53;;;;;;;14.40;8.05;;;;;;;13.40;87.23;99399.00;5027337;28;20029;-81
2022/10/29 02:24:19;;;;;;;13.10;6.45;;;;;;;13.89;83.90;99395.13;4994675;28;20037;-82
2022/10/29 02:26:44;;;;;;;11.82;7.28;;;;;;;13.81;83.70;99381.38;5014800;28;20389;-81
2022/10/29 02:29:09;;;;;;;13.95;7.28;;;;;;;13.32;87.80;99391.41;4994110;28;20025;-81
2022/10/29 02:31:35;;;;;;;20.90;9.57;;;;;;;12.75;90.79;99393.66;5008907;28;20037;-81
2022/10/29 02:34:00;;;;;;;24.80;10.70;;;;;;;12.17;93.54;99388.84;5010513;28;20034;-81
2022/10/29 02:36:26;;;;;;;13.32;9.25;;;;;;;12.18;94.57;99386.97;5026495;28;20509;-81
2022/10/29 02:38:51;;;;;;;24.23;9.57;;;;;;;12.35;93.34;99377.88;5008293;28;20044;-81
2022/10/29 02:41:16;;;;;;;18.35;9.48;;;;;;;12.65;91.82;99385.50;4978577;28;20037;-81
2022/10/29 02:43:42;;;;;;;15.63;8.68;;;;;;;12.59;92.04;99389.97;5010367;28;20529;-81
2022/10/29 02:46:21;;;;;;;14.23;7.50;;;;;;;12.77;90.65;99386.19;5009163;28;20034;-81
2022/10/29 02:48:47;;;;;;;22.25;9.73;;;;;;;12.38;92.46;99381.94;5010449;28;20070;-81
2022/10/29 02:51:13;;;;;;;16.35;7.38;;;;;;;12.47;92.49;99365.16;5008359;28;20029;-80
2022/10/29 02:53:39;;;;;;;19.70;10.50;;;;;;;12.46;92.46;99368.09;5024806;28;20029;-80
2022/10/29 02:56:06;;;;;;;13.52;7.63;;;;;;;12.56;92.37;99373.59;5007514;28;20478;-81
2022/10/29 02:58:31;;;;;;;14.50;8.23;;;;;;;12.86;90.88;99375.84;5027988;28;20402;-81
2022/10/29 03:00:57;;;;;;;22.90;9.88;;;;;;;12.69;90.62;99368.69;5024029;28;20044;-81
2022/10/29 03:03:23;;;;;;;9.35;6.97;;;;;;;13.03;89.47;99390.78;5010731;28;20048;-81
2022/10/29 03:05:48;;;;;;;21.85;10.32;;;;;;;12.77;90.68;99389.69;5009475;28;20037;-82
2022/10/29 03:08:14;;;;;;;24.83;11.38;;;;;;;12.29;92.71;99375.38;5024313;28;20037;-81
2022/10/29 03:10:39;;;;;;;25.88;9.52;;;;;;;12.40;92.15;99385.97;4991369;28;20049;-81
2022/10/29 03:13:04;;;;;;;18.23;8.70;;;;;;;12.54;91.67;99383.72;5024231;28;20061;-81
2022/10/29 03:15:30;;;;;;;11.68;6.72;;;;;;;13.14;88.47;99381.84;5014052;28;20048;-81
2022/10/29 03:17:55;;;;;;;16.65;8.23;;;;;;;13.64;86.03;99394.13;5025698;28;20025;-81
2022/10/29 03:20:21;;;;;;;12.27;7.40;;;;;;;13.68;84.11;99376.44;5007834;28;20707;-81
2022/10/29 03:22:46;;;;;;;18.42;8.40;;;;;;;13.41;85.66;99371.91;5007346;28;20878;-81
2022/10/29 03:25:12;;;;;;;13.25;6.85;;;;;;;13.70;84.62;99377.81;5012083;28;20042;-81
2022/10/29 03:27:41;;;;;;;17.30;7.72;;;;;;;13.77;84.43;99399.06;5023880;28;20060;-81
2022/10/29 03:30:12;;;;;;;12.02;6.60;;;;;;;13.64;84.72;99397.63;5017464;28;20068;-81
2022/10/29 03:32:42;;;;;;;18.40;7.22;;;;;;;13.73;84.20;99389.91;5010620;28;20481;-81
2022/10/29 03:35:09;;;;;;;14.00;7.45;;;;;;;13.67;84.69;99402.47;5009026;28;20036;-81
2022/10/29 03:37:34;;;;;;;13.35;7.28;;;;;;;13.62;84.63;99396.25;5007594;28;20030;-82
2022/10/29 03:39:59;;;;;;;16.60;7.97;;;;;;;13.74;84.72;99402.28;5025377;28;20658;-81
2022/10/29 03:42:25;;;;;;;12.40;6.70;;;;;;;13.83;83.92;99404.22;5025901;28;20195;-81
2022/10/29 03:44:50;;;;;;;14.30;7.30;;;;;;;13.88;83.67;99395.41;4992933;28;20588;-82
2022/10/29 03:47:16;;;;;;;13.57;7.32;;;;;;;14.09;83.27;99414.09;5026467;28;20074;-81
2022/10/29 03:49:41;;;;;;;12.30;7.80;;;;;;;14.08;83.16;99415.16;5014028;28;20033;-81
2022/10/29 03:52:06;;;;;;;17.83;8.07;;;;;;;13.89;83.67;99426.56;5013252;28;20172;-81
2022/10/29 03:54:32;;;;;;;22.27;8.77;;;;;;;13.22;89.20;99410.88;5012421;28;20033;-81
2022/10/29 03:56:57;;;;;;;16.52;9.70;;;;;;;12.78;92.08;99403.88;5025960;28;20087;-80
2022/10/29 03:59:22;;;;;;;29.88;8.82;;;;;;;12.60;93.34;99404.19;5033168;28;20034;-81
2022/10/29 04:01:48;;;;;;;13.52;8.07;;;;;;;12.68;93.22;99398.41;5029375;28;20030;-81
2022/10/29 04:04:13;;;;;;;16.83;8.43;;;;;;;13.28;88.64;99398.34;5027905;28;20037;-81
2022/10/29 04:06:38;;;;;;;23.02;9.48;;;;;;;12.69;91.78;99395.47;5026830;28;20021;-81
2022/10/29 04:09:04;;;;;;;19.33;9.43;;;;;;;12.68;91.92;99409.94;5011832;28;20108;-81
2022/10/29 04:11:29;;;;;;;12.25;7.05;;;;;;;13.09;88.94;99402.41;5011924;28;20171;-81
2022/10/29 04:13:55;;;;;;;14.18;8.85;;;;;;;13.34;86.34;99387.41;5028430;28;20030;-82
2022/10/29 04:16:20;;;;;;;30.15;10.88;;;;;;;13.15;88.44;99407.56;5028897;28;20033;-81
2022/10/29 04:18:47;;;;;;;14.80;8.68;;;;;;;12.92;90.02;99415.84;5026840;28;20123;-81
2022/10/29 04:21:12;;;;;;;17.08;8.88;;;;;;;13.14;88.22;99403.28;5030119;28;20030;-83
2022/10/29 04:23:37;;;;;;;10.57;7.95;;;;;;;13.24;87.72;99403.38;5010066;28;20388;-82
2022/10/29 04:26:03;;;;;;;13.98;6.80;;;;;;;13.47;86.24;99392.38;5029301;28;20030;-82
2022/10/29 04:28:28;;;;;;;11.50;7.78;;;;;;;13.18;87.29;99387.50;5029986;28;20467;-82
2022/10/29 04:30:54;;;;;;;12.82;7.28;;;;;;;13.69;85.18;99404.91;5010512;28;20033;-82
2022/10/29 04:33:20;;;;;;;12.70;7.63;;;;;;;13.74;84.46;99407.63;5004569;28;20041;-82
2022/10/29 04:35:51;;;;;;;15.25;8.15;;;;;;;13.73;84.04;99406.00;5010086;28;20444;-82
2022/10/29 04:38:17;;;;;;;12.23;7.35;;;;;;;13.80;83.86;99402.06;5029081;28;20378;-82
2022/10/29 04:40:43;;;;;;;11.77;7.43;;;;;;;13.88;83.09;99385.47;5026018;28;20041;-82
2022/10/29 04:43:08;;;;;;;13.52;7.15;;;;;;;13.88;82.88;99395.41;5013153;28;20091;-82
2022/10/29 04:45:33;;;;;;;15.90;8.82;;;;;;;13.59;84.21;99402.94;4995313;28;20043;-83
2022/10/29 04:48:00;;;;;;;13.95;7.00;;;;;;;13.61;84.24;99403.47;5026393;28;20075;-83
2022/10/29 04:50:25;;;;;;;15.70;7.35;;;;;;;13.54;83.97;99381.44;5010267;28;20165;-83
2022/10/29 04:52:51;;;;;;;16.13;7.47;;;;;;;13.61;83.87;99406.16;5012595;28;20033;-83
2022/10/29 04:55:16;;;;;;;31.13;10.50;;;;;;;12.75;86.85;99389.09;4996046;28;20100;-83
2022/10/29 04:57:41;;;;;;;12.52;6.93;;;;;;;12.73;88.47;99404.63;5010439;28;20025;-82
2022/10/29 05:00:07;;;;;;;14.27;7.95;;;;;;;13.50;84.42;99402.56;5026268;28;20041;-82
2022/10/29 05:02:34;;;;;;;14.60;6.68;;;;;;;13.57;83.80;99397.00;5029965;28;20057;-82
2022/10/29 05:05:00;;;;;;;13.45;6.85;;;;;;;13.58;83.87;99400.50;5020898;28;20026;-82
2022/10/29 05:07:25;;;;;;;15.52;7.65;;;;;;;13.47;83.97;99389.69;5010633;28;20934;-82
2022/10/29 05:09:50;;;;;;;12.27;8.15;;;;;;;13.67;83.72;99396.31;5028588;28;20029;-83
2022/10/29 05:12:16;;;;;;;11.52;7.53;;;;;;;13.77;83.42;99399.06;5010333;28;20048;-82
2022/10/29 05:14:41;;;;;;;19.92;7.68;;;;;;;13.39;83.63;99381.25;5027752;28;20034;-83
2022/10/29 05:17:06;;;;;;;18.17;8.73;;;;;;;12.91;85.78;99384.75;4994404;28;20041;-82
2022/10/29 05:19:32;;;;;;;18.40;7.75;;;;;;;13.45;83.94;99394.47;5010345;28;20029;-82
2022/10/29 05:21:57;;;;;;;16.80;7.75;;;;;;;13.63;83.32;99404.03;4979798;28;20441;-83
2022/10/29 05:24:22;;;;;;;15.25;7.70;;;;;;;13.34;84.39;99398.16;5010416;28;20029;-81
2022/10/29 05:26:48;;;;;;;12.77;7.22;;;;;;;13.57;83.33;99386.28;5025616;28;20474;-82
2022/10/29 05:29:13;;;;;;;16.30;7.32;;;;;;;13.38;83.78;99385.84;5029843;28;20559;-82
2022/10/29 05:31:38;;;;;;;12.32;6.72;;;;;;;13.46;83.81;99382.69;5008930;28;20115;-82
2022/10/29 05:34:04;;;;;;;17.85;7.60;;;;;;;13.25;84.18;99388.94;5024642;28;20026;-82
2022/10/29 05:36:29;;;;;;;13.13;7.07;;;;;;;13.20;84.21;99367.41;5010993;28;20500;-82
2022/10/29 05:38:54;;;;;;;17.35;8.35;;;;;;;13.65;82.70;99401.13;5009798;28;20037;-82
2022/10/29 05:41:20;;;;;;;12.55;8.43;;;;;;;13.49;83.42;99395.63;5027503;28;20037;-82
2022/10/29 05:43:49;;;;;;;20.48;10.57;;;;;;;13.06;84.68;99398.34;5010557;28;20041;-83
2022/10/29 05:46:15;;;;;;;26.42;11.25;;;;;;;12.06;90.27;99394.31;5028630;28;20516;-82
2022/10/29 05:48:41;;;;;;;14.50;7.75;;;;;;;12.39;89.52;99381.66;5028227;28;20033;-82
2022/10/29 05:51:06;;;;;;;11.23;7.18;;;;;;;13.04;85.13;99387.03;5010976;28;20152;-81
2022/10/29 05:53:31;;;;;;;13.80;7.25;;;;;;;12.81;86.77;99400.69;5027251;28;20084;-81
2022/10/29 05:55:58;;;;;;;26.63;9.55;;;;;;;12.47;87.36;99393.84;5026215;28;20036;-80
2022/10/29 05:58:23;;;;;;;22.33;10.63;;;;;;;11.86;90.63;99386.78;5007160;28;20091;-80
2022/10/29 06:00:48;;;;;;;19.77;8.32;;;;;;;12.77;87.43;99378.97;5010961;28;20474;-81
2022/10/29 06:03:19;;;;;;;12.93;7.40;;;;;;;12.96;86.02;99390.16;4982788;28;20095;-81
2022/10/29 06:05:46;;;;;;;12.40;7.72;;;;;;;13.18;83.79;99382.13;5025261;28;20057;-81
2022/10/29 06:08:11;;;;;;;12.43;7.13;;;;;;;13.24;83.58;99389.97;5025276;28;20547;-81
2022/10/29 06:10:37;;;;;;;17.25;7.50;;;;;;;13.18;84.12;99390.16;5009079;28;20025;-81
2022/10/29 06:13:12;;;;;;;14.45;7.15;;;;;;;13.11;84.14;99387.69;5029531;28;20466;-81
2022/10/29 06:15:38;;;;;;;15.73;7.40;;;;;;;13.31;83.57;99397.81;5028489;28;20026;-81
2022/10/29 06:18:04;;;;;;;15.35;9.02;;;;;;;13.17;83.65;99384.00;5007918;28;20310;-81
2022/10/29 06:20:29;;;;;;;19.52;9.07;;;;;;;12.93;84.54;99401.38;5027834;28;20030;-81
2022/10/29 06:22:56;;;;;;;18.90;8.70;;;;;;;13.01;84.92;99392.91;5024861;28;20141;-83
2022/10/29 06:25:22;;;;;;;11.68;7.25;;;;;;;13.24;83.66;99392.66;5011347;28;20033;-82
2022/10/29 06:28:00;;;;;;;16.70;7.82;;;;;;;13.17;83.75;99384.00;5024277;28;20113;-81
2022/10/29 06:30:26;;;;;;;13.40;7.85;;;;;;;13.20;83.17;99375.47;5014116;28;20029;-81
2022/10/29 06:32:51;;;;;;;15.90;8.05;;;;;;;13.20;83.32;99388.88;5026274;28;20052;-83
2022/10/29 06:35:16;;;;;;;15.77;8.63;;;;;;;13.16;83.62;99381.56;5007859;28;20068;-82
2022/10/29 06:37:42;;;;;;;13.15;7.75;;;;;;;13.27;83.30;99381.44;5010247;28;20516;-80
2022/10/29 06:40:08;;;;;;;16.05;7.13;;;;;;;13.43;82.81;99399.28;5009359;28;20076;-82
2022/10/29 06:42:33;;;;;;;13.75;8.43;;;;;;;12.82;85.46;99394.28;5024739;28;20044;-80
2022/10/29 06:44:58;;;;;;;17.00;7.60;;;;;;;13.04;83.86;99373.63;5028096;28;20397;-82
2022/10/29 06:47:24;;;;;;;13.07;7.90;;;;;;;13.22;83.68;99392.09;4986812;28;20120;-81
2022/10/29 06:49:49;;;;;;;13.23;8.27;;;;;;;13.41;82.94;99387.22;5009350;28;20644;-82
2022/10/29 06:52:14;;;;;;;16.95;8.13;;;;;;;13.19;83.67;99370.38;5007826;28;20033;-80
2022/10/29 06:54:40;;;;;;;20.33;7.88;;;;;;;13.32;83.72;99381.47;5024532;28;20167;-80
2022/10/29 06:57:05;;;;;;;15.35;7.57;;;;;;;13.32;83.60;99389.50;5006475;28;20037;-80
2022/10/29 06:59:30;;;;;;;12.02;7.28;;;;;;;13.40;83.24;99399.81;5027485;28;20067;-81
2022/10/29 07:01:56;;;;;;;14.63;7.78;;;;;;;13.12;84.88;99383.16;5024950;28;20034;-82
2022/10/29 07:04:21;;;;;;;16.70;7.47;;;;;;;13.32;84.07;99383.38;5015192;28;20037;-80
2022/10/29 07:06:46;;;;;;;20.15;10.38;;;;;;;13.03;85.60;99368.53;5019268;28;20022;-81
2022/10/29 07:09:12;;;;;;;16.88;8.80;;;;;;;13.10;85.18;99370.00;5023937;28;20128;-82
2022/10/29 07:11:38;;;;;;;11.50;7.28;;;;;;;13.13;83.94;99350.72;5023238;28;20450;-82
2022/10/29 07:14:04;;;;;;;20.15;7.45;;;;;;;13.31;83.56;99361.09;5006185;28;20816;-82
2022/10/29 07:16:30;;;;;;;11.77;7.78;;;;;;;13.10;84.98;99372.69;5010780;28;20025;-82
2022/10/29 07:18:56;;;;;;;11.98;7.90;;;;;;;13.32;84.11;99378.78;5006235;28;20557;-82
2022/10/29 07:21:21;;;;;;;15.55;9.25;;;;;;;13.01;85.57;99357.25;4997489;28;20041;-82
2022/10/29 07:23:47;;;;;;;17.92;8.15;;;;;;;13.38;84.03;99383.16;5025154;28;20737;-83
2022/10/29 07:26:12;;;;;;;12.48;8.25;;;;;;;13.46;83.91;99373.84;5016452;28;20034;-83
2022/10/29 07:28:37;;;;;;;11.07;7.28;;;;;;;13.35;83.93;99377.47;5026618;28;20026;-82
2022/10/29 07:31:03;;;;;;;16.63;8.25;;;;;;;13.39;84.08;99370.53;4994388;28;20036;-83
2022/10/29 07:33:29;;;;;;;16.20;7.25;;;;;;;13.41;84.27;99382.63;4997265;28;20532;-83
2022/10/29 07:35:58;;;;;;;13.57;7.32;;;;;;;13.36;84.80;99379.94;5024712;28;20034;-82
2022/10/29 07:38:23;;;;;;;12.93;7.05;;;;;;;13.35;84.70;99378.28;5028163;28;20694;-83
2022/10/29 07:40:50;;;;;;;16.40;7.30;;;;;;;13.32;85.83;99397.56;5030710;28;20052;-82
2022/10/29 07:43:16;;;;;;;17.48;9.52;;;;;;;13.19;85.54;99375.72;5024200;28;20489;-83
2022/10/29 07:45:44;;;;;;;11.65;7.82;;;;;;;13.19;84.93;99357.75;5027027;28;20021;-82
2022/10/29 07:48:09;;;;;;;11.40;7.55;;;;;;;13.45;84.95;99393.69;5029369;28;20021;-82
2022/10/29 07:50:37;;;;;;;17.90;8.30;;;;;;;13.38;85.41;99396.56;5026698;28;20132;-83
2022/10/29 07:53:04;;;;;;;15.10;7.72;;;;;;;13.41;85.40;99396.03;5008811;28;20069;-83
2022/10/29 07:55:29;;;;;;;11.77;7.70;;;;;;;13.46;85.40;99392.59;5028814;28;20413;-83
2022/10/29 07:58:01;;;;;;;12.93;8.05;;;;;;;13.41;85.56;99395.25;5027245;28;20026;-82
2022/10/29 08:00:32;;;;;;;13.63;7.43;;;;;;;13.51;84.80;99398.84;5001689;28;20053;-82
2022/10/29 08:02:57;;;;;;;13.80;8.40;;;;;;;13.62;84.65;99406.97;5010380;28;20524;-82
2022/10/29 08:05:24;;;;;;;23.80;9.20;;;;;;;13.40;88.01;99407.03;4995850;28;20057;-82
2022/10/29 08:07:53;;;;;;;16.75;8.05;;;;;;;13.63;85.83;99414.75;5005615;28;20029;-83
2022/10/29 08:10:18;;;;;;;21.88;8.85;;;;;;;13.60;88.30;99415.28;5029389;28;20033;-83
2022/10/29 08:12:52;;;;;;;22.90;9.13;;;;;;;13.55;90.26;99417.91;5028528;28;20036;-83
2022/10/29 08:15:18;;;;;;;17.58;7.68;;;;;;;13.78;86.94;99417.56;5013613;28;20037;-82
2022/10/29 08:17:44;;;;;;;22.45;9.18;;;;;;;13.79;87.42;99402.28;5023742;28;20029;-82
2022/10/29 08:20:10;;;;;;;18.98;7.47;;;;;;;13.85;86.43;99395.91;5023523;28;20474;-82
2022/10/29 08:22:35;;;;;;;29.48;9.55;;;;;;;13.85;87.40;99398.59;4990789;28;20080;-83
2022/10/29 08:25:00;;;;;;;16.77;8.45;;;;;;;13.83;87.16;99411.44;5012747;28;20569;-83
2022/10/29 08:27:26;;;;;;;13.00;7.43;;;;;;;14.11;84.85;99403.91;5022371;28;20034;-83
2022/10/29 08:29:51;;;;;;;23.38;10.02;;;;;;;14.00;87.79;99420.19;5009125;28;20048;-83
2022/10/29 08:32:17;;;;;;;19.50;9.38;;;;;;;13.74;90.47;99408.44;5009674;28;20075;-82
2022/10/29 08:34:42;;;;;;;15.27;7.85;;;;;;;13.86;86.88;99398.34;5008500;28;20041;-82
2022/10/29 08:37:07;;;;;;;10.90;7.53;;;;;;;14.19;84.50;99418.72;5030462;28;20120;-83
2022/10/29 08:39:33;;;;;;;22.65;11.05;;;;;;;14.05;89.31;99426.41;5009922;28;20122;-82
2022/10/29 08:42:13;;;;;;;29.92;10.95;;;;;;;13.82;91.12;99426.75;5008331;28;20037;-83
2022/10/29 08:45:03;;;;;;;17.15;10.10;;;;;;;13.97;87.92;99410.78;5028535;28;20389;-83
2022/10/29 08:47:41;;;;;;;24.38;9.30;;;;;;;14.11;86.93;99406.59;5027842;28;20056;-83
2022/10/29 08:50:23;;;;;;;12.65;7.13;;;;;;;14.28;84.62;99399.19;5025479;28;20037;-83
2022/10/29 08:52:50;;;;;;;15.73;7.35;;;;;;;14.40;84.53;99404.41;5025426;28;20044;-82
2022/10/29 08:55:19;;;;;;;24.38;9.73;;;;;;;14.23;88.26;99390.28;5026807;28;20091;-82
2022/10/29 08:57:53;;;;;;;23.50;11.65;;;;;;;14.08;90.11;99392.88;5008421;28;20056;-82
2022/10/29 09:00:31;;;;;;;25.88;11.63;;;;;;;13.94;91.70;99384.44;5022280;28;20033;-82
2022/10/29 09:02:58;;;;;;;20.23;9.70;;;;;;;13.89;92.28;99397.03;5006474;28;20029;-82
2022/10/29 09:05:37;;;;;;;18.23;9.43;;;;;;;14.03;89.12;99374.84;5005780;28;20034;-82
2022/10/29 09:08:45;;;;;;;21.17;9.00;;;;;;;14.53;85.76;99403.13;5031273;28;20021;-82
2022/10/29 09:11:29;;;;;;;14.75;7.35;;;;;;;14.75;84.85;99409.16;5010739;28;20045;-82
2022/10/29 09:14:27;;;;;;;10.68;7.30;;;;;;;14.71;85.08;99403.50;5011469;28;20044;-82
2022/10/29 09:17:18;;;;;;;11.57;7.53;;;;;;;14.79;84.43;99400.31;5002158;28;20508;-83
2022/10/29 09:20:18;;;;;;;14.82;8.57;;;;;;;14.86;85.04;99400.06;5024994;28;20049;-83
2022/10/29 09:23:13;;;;;;;18.13;7.68;;;;;;;14.89;84.34;99400.38;5006115;28;20021;-83
2022/10/29 09:25:43;;;;;;;16.05;8.15;;;;;;;14.95;85.31;99403.88;4976909;28;20064;-83
2022/10/29 09:28:14;;;;;;;17.67;8.65;;;;;;;14.95;85.73;99402.00;5010996;28;20060;-83
2022/10/29 09:30:52;;;;;;;21.13;8.23;;;;;;;15.06;83.54;99384.03;5023443;28;20034;-83
2022/10/29 09:33:20;;;;;;;18.17;7.75;;;;;;;15.03;85.01;99395.28;5025038;28;20140;-83
2022/10/29 09:35:54;;;;;;;21.55;7.85;;;;;;;15.03;85.96;99395.28;5025380;28;20118;-82
2022/10/29 09:38:24;;;;;;;18.23;7.38;;;;;;;15.21;84.08;99407.44;5026278;28;20394;-83
2022/10/29 09:40:50;;;;;;;26.17;8.95;;;;;;;15.14;84.64;99406.88;5012258;28;20037;-83
2022/10/29 09:43:40;;;;;;;15.10;7.88;;;;;;;15.08;84.12;99424.91;5011655;28;20131;-83
2022/10/29 09:46:24;;;;;;;18.13;8.23;;;;;;;15.17;84.39;99419.81;5028537;28;20093;-83
2022/10/29 09:49:15;;;;;;;20.40;8.80;;;;;;;15.14;84.89;99413.06;5018981;28;20022;-84
2022/10/29 09:51:53;;;;;;;20.42;8.35;;;;;;;15.19;85.33;99414.97;5022526;28;20026;-84
2022/10/29 09:54:19;;;;;;;17.50;8.98;;;;;;;15.12;85.10;99404.47;5026371;28;20022;-83
2022/10/29 09:56:46;;;;;;;22.77;9.38;;;;;;;15.28;84.68;99400.75;5019587;28;20029;-84
2022/10/29 09:59:35;;;;;;;17.55;8.07;;;;;;;15.34;84.19;99402.38;5009264;28;20029;-84
2022/10/29 10:02:03;;;;;;;21.70;8.45;;;;;;;15.30;85.75;99389.72;5024735;28;20037;-84
2022/10/29 10:04:39;;;;;;;14.07;7.15;;;;;;;15.38;84.17;99389.19;5024391;28;20041;-84
2022/10/29 10:07:15;;;;;;;19.42;8.45;;;;;;;15.55;83.63;99387.91;5001739;28;20036;-84
2022/10/29 10:09:55;;;;;;;18.38;7.90;;;;;;;15.50;82.77;99379.84;5021663;28;20613;-84
2022/10/29 10:12:25;;;;;;;18.27;8.45;;;;;;;15.58;83.15;99387.41;5029815;28;20039;-84
2022/10/29 10:15:19;;;;;;;16.38;8.13;;;;;;;15.42;85.33;99377.66;5009478;28;20025;-84
2022/10/29 10:18:03;;;;;;;22.42;9.65;;;;;;;15.39;87.00;99377.38;5023677;28;20034;-84
2022/10/29 10:20:28;;;;;;;19.92;7.93;;;;;;;15.67;83.96;99385.78;5006755;28;20030;-84
2022/10/29 10:22:54;;;;;;;20.38;9.25;;;;;;;15.50;86.08;99355.66;5022155;28;20025;-84
2022/10/29 10:25:36;;;;;;;24.23;9.35;;;;;;;15.58;86.38;99379.31;5024550;28;20038;-84
2022/10/29 10:28:12;;;;;;;22.02;9.65;;;;;;;15.57;85.12;99353.47;5020946;28;20039;-84
2022/10/29 10:30:37;;;;;;;19.83;8.27;;;;;;;15.82;85.71;99357.25;5025478;28;20432;-84
2022/10/29 10:33:25;;;;;;;15.65;8.15;;;;;;;15.88;85.54;99359.66;5007797;28;20171;-84
2022/10/29 10:35:53;;;;;;;22.35;8.32;;;;;;;15.97;83.70;99330.31;5006016;28;20048;-84
2022/10/29 10:38:19;;;;;;;19.40;8.38;;;;;;;15.94;85.01;99334.38;5020435;28;20029;-84
2022/10/29 10:40:54;;;;;;;18.73;8.23;;;;;;;15.96;84.14;99323.31;5020595;28;20025;-83
2022/10/29 10:43:23;;;;;;;19.35;9.13;;;;;;;16.04;84.13;99331.66;5023474;28;20036;-83
2022/10/29 10:45:58;;;;;;;23.75;8.90;;;;;;;16.03;84.79;99335.41;5020465;28;20082;-84
2022/10/29 10:48:27;;;;;;;13.87;8.60;;;;;;;16.33;83.31;99331.88;5025189;28;20026;-83
2022/10/29 10:51:09;;;;;;;19.85;8.00;;;;;;;16.24;83.51;99320.03;5021119;28;20067;-84
2022/10/29 10:53:34;;;;;;;23.70;9.88;;;;;;;16.20;84.13;99330.56;5008286;28;20032;-84
2022/10/29 10:56:00;;;;;;;18.80;8.07;;;;;;;16.36;82.83;99315.13;5020426;28;20021;-84
2022/10/29 10:58:29;;;;;;;19.33;8.13;;;;;;;16.26;83.60;99313.31;5025805;28;20528;-84
2022/10/29 11:01:03;;;;;;;19.40;8.00;;;;;;;16.31;83.72;99317.88;5020360;28;21800;-83
2022/10/29 11:03:38;;;;;;;19.10;8.02;;;;;;;16.49;83.28;99315.38;5019595;28;20079;-84
2022/10/29 11:06:36;;;;;;;17.50;7.68;;;;;;;16.59;82.51;99311.88;5022968;28;20165;-84
2022/10/29 11:09:20;;;;;;;20.98;9.00;;;;;;;16.65;82.06;99297.28;5020776;28;20421;-84
2022/10/29 11:11:56;;;;;;;18.35;7.85;;;;;;;16.48;83.29;99311.06;5017229;28;20160;-83
2022/10/29 11:14:21;;;;;;;;;;;;;;;16.41;83.83;99310.56;5025671;28;20477;-84
2022/10/29 11:16:54;;;;;;;17.90;8.80;;;;;;;16.20;83.03;99287.47;5005973;28;19992;-83
2022/10/29 11:19:27;;;;;;;19.55;9.23;;;;;;;16.42;83.35;99306.78;5012731;28;20041;-84
2022/10/29 11:22:17;;;;;;;21.00;8.55;;;;;;;16.36;83.91;99307.06;5027996;28;20033;-84
2022/10/29 11:24:57;;;;;;;21.45;8.35;;;;;;;16.39;84.41;99301.94;5018831;28;20033;-83
2022/10/29 11:27:29;;;;;;;17.05;8.07;;;;;;;16.65;83.45;99305.38;5020566;28;20033;-84
2022/10/29 11:30:05;;;;;;;16.42;7.57;;;;;;;16.79;83.25;99302.88;5025430;28;20021;-83
2022/10/29 11:32:55;;;;;;;24.38;9.45;;;;;;;16.69;84.14;99294.84;5011029;28;20037;-83
2022/10/29 11:35:45;;;;;;;18.95;8.63;;;;;;;16.63;83.27;99295.94;5026898;28;20025;-83
2022/10/29 11:38:17;;;;;;;20.05;6.78;;;;;;;16.70;83.91;99285.69;5032122;28;20514;-83